Time;durP1;ratioP1;P1;durP2;ratioP2;P2;SDS_P1;SDS_P2;PMS_P1;PMS_P2;Temp;Humidity;BMP_temperature;BMP_pressure;BME280_temperature;BME280_humidity;BME280_pressure;Samples;Min_cycle;Max_cycle;Signal;HPM_P1;HPM_P2
2021/12/24 00:01:05;;;;;;;105.60;33.28;;;6.50;99.90;;;;;;5058138;28;19921;-66
2021/12/24 00:03:31;;;;;;;98.82;33.25;;;6.50;99.90;;;;;;5063839;28;20083;-66
2021/12/24 00:05:57;;;;;;;86.60;32.40;;;6.50;99.90;;;;;;5066535;28;20055;-65
2021/12/24 00:08:23;;;;;;;106.15;35.75;;;6.50;99.90;;;;;;5065189;28;20049;-66
2021/12/24 00:10:57;;;;;;;111.10;34.72;;;6.50;99.90;;;;;;5064597;28;20151;-65
2021/12/24 00:13:23;;;;;;;107.10;34.23;;;6.50;99.90;;;;;;5054956;28;20125;-66
2021/12/24 00:16:06;;;;;;;98.20;33.58;;;6.60;99.90;;;;;;5062796;28;20070;-66
2021/12/24 00:18:45;;;;;;;106.25;35.95;;;6.60;99.90;;;;;;5058118;28;20076;-65
2021/12/24 00:22:10;;;;;;;93.15;31.25;;;6.70;99.90;;;;;;5059151;28;20106;-65
2021/12/24 00:35:22;;;;;;;89.47;30.90;;;6.70;99.90;;;;;;5051589;28;20414;-66
2021/12/24 00:37:47;;;;;;;88.15;31.05;;;6.80;99.90;;;;;;5052543;28;20063;-65
2021/12/24 00:40:18;;;;;;;85.97;31.58;;;6.80;99.90;;;;;;5063173;28;20054;-64
2021/12/24 00:42:55;;;;;;;88.10;31.33;;;6.80;99.90;;;;;;5058245;28;20068;-64
2021/12/24 00:45:33;;;;;;;95.72;33.10;;;6.80;99.90;;;;;;5056010;28;20108;-65
2021/12/24 00:48:00;;;;;;;89.55;32.58;;;6.80;99.90;;;;;;5059551;28;20495;-65
2021/12/24 00:50:35;;;;;;;88.22;31.70;;;6.80;99.90;;;;;;5057281;28;20032;-65
2021/12/24 00:55:02;;;;;;;77.13;29.08;;;6.80;99.90;;;;;;5053790;28;20677;-65
2021/12/24 00:55:49;;;;;;;81.75;29.98;;;6.90;99.90;;;;;;5060985;28;20063;-65
2021/12/24 00:58:15;;;;;;;74.93;29.45;;;6.90;99.90;;;;;;5062535;28;20048;-64
2021/12/24 01:00:41;;;;;;;76.05;28.52;;;6.90;99.90;;;;;;5059957;28;20041;-64
2021/12/24 01:03:09;;;;;;;78.63;30.10;;;6.90;99.90;;;;;;5058406;28;20116;-64
2021/12/24 01:05:37;;;;;;;88.70;30.55;;;6.90;99.90;;;;;;5057701;28;20072;-64
2021/12/24 01:08:04;;;;;;;79.25;30.13;;;6.90;99.90;;;;;;5050384;28;20102;-64
2021/12/24 01:10:33;;;;;;;78.28;29.73;;;7.00;99.90;;;;;;5061187;28;21664;-64
2021/12/24 01:13:00;;;;;;;71.47;28.33;;;7.00;99.90;;;;;;5064521;28;20093;-64
2021/12/24 01:15:27;;;;;;;72.30;28.30;;;7.00;99.90;;;;;;5062006;28;20051;-64
2021/12/24 01:18:12;;;;;;;74.60;27.88;;;7.00;99.90;;;;;;5061476;28;20084;-65
2021/12/24 01:20:44;;;;;;;72.13;28.60;;;7.10;99.90;;;;;;5053334;28;20053;-65
2021/12/24 01:23:35;;;;;;;67.43;26.80;;;7.10;99.90;;;;;;5050595;28;20115;-64
2021/12/24 01:26:11;;;;;;;55.15;24.33;;;7.10;99.90;;;;;;5052905;28;20049;-64
2021/12/24 01:39:38;;;;;;;52.88;25.13;;;7.30;99.90;;;;;;5059244;28;20058;-64
2021/12/24 01:44:50;;;;;;;65.00;26.98;;;7.30;99.90;;;;;;5057884;28;20056;-64
2021/12/24 01:47:15;;;;;;;57.47;24.45;;;7.40;99.90;;;;;;5065124;28;20040;-64
2021/12/24 01:49:41;;;;;;;56.92;24.65;;;7.40;99.90;;;;;;5060946;28;20033;-65
2021/12/24 01:52:07;;;;;;;60.13;25.40;;;7.40;99.90;;;;;;5055355;28;20040;-65
2021/12/24 01:54:34;;;;;;;62.78;25.50;;;7.40;99.90;;;;;;5052521;28;20132;-65
2021/12/24 01:57:00;;;;;;;67.32;26.77;;;7.40;99.90;;;;;;5063502;28;20037;-64
2021/12/24 01:59:26;;;;;;;67.07;26.98;;;7.40;99.90;;;;;;5060513;28;20047;-65
2021/12/24 02:01:52;;;;;;;60.13;24.83;;;7.40;99.90;;;;;;5053916;28;20032;-64
2021/12/24 02:04:18;;;;;;;58.08;24.05;;;7.40;99.90;;;;;;5055719;28;20124;-63
2021/12/24 02:06:46;;;;;;;57.78;22.88;;;7.50;99.90;;;;;;5061388;28;20048;-64
2021/12/24 02:09:12;;;;;;;54.65;23.60;;;7.50;99.90;;;;;;5056669;28;20098;-65
2021/12/24 02:11:41;;;;;;;74.10;27.17;;;7.50;99.90;;;;;;5054750;28;20147;-64
2021/12/24 02:14:09;;;;;;;69.90;26.05;;;7.60;99.90;;;;;;5058680;28;20040;-65
2021/12/24 02:16:53;;;;;;;63.92;24.70;;;7.60;99.90;;;;;;5050249;28;20162;-65
2021/12/24 02:30:19;;;;;;;70.10;25.23;;;7.80;99.90;;;;;;5054887;28;20574;-65
2021/12/24 02:32:45;;;;;;;64.60;23.33;;;7.90;99.90;;;;;;5051659;28;20123;-65
2021/12/24 02:35:11;;;;;;;62.75;23.92;;;7.90;99.90;;;;;;5058429;28;20128;-65
2021/12/24 02:37:36;;;;;;;61.05;23.42;;;7.90;99.90;;;;;;5052374;28;20361;-65
2021/12/24 02:40:06;;;;;;;63.13;24.05;;;7.90;99.90;;;;;;5059842;28;20064;-65
2021/12/24 02:42:34;;;;;;;65.03;23.48;;;7.90;99.90;;;;;;5051102;28;20040;-64
2021/12/24 02:45:00;;;;;;;59.15;22.98;;;8.00;99.90;;;;;;5057458;28;20052;-64
2021/12/24 02:47:40;;;;;;;57.35;23.02;;;8.00;99.90;;;;;;5051327;28;20040;-65
2021/12/24 02:55:17;;;;;;;62.05;23.35;;;8.10;99.90;;;;;;5055128;28;20567;-66
2021/12/24 02:57:43;;;;;;;55.95;22.13;;;8.10;99.90;;;;;;5052092;28;20053;-65
2021/12/24 03:00:19;;;;;;;53.75;20.98;;;8.10;99.90;;;;;;5053665;28;20040;-66
2021/12/24 03:02:45;;;;;;;50.25;19.35;;;8.10;99.90;;;;;;5057178;28;20366;-66
2021/12/24 03:05:13;;;;;;;50.38;19.25;;;8.10;99.90;;;;;;5058008;28;20127;-65
2021/12/24 03:07:39;;;;;;;56.97;20.58;;;8.10;99.90;;;;;;5059731;28;20045;-66
2021/12/24 03:10:11;;;;;;;44.33;16.55;;;8.20;99.90;;;;;;5058238;28;20045;-65
2021/12/24 03:12:37;;;;;;;39.55;15.68;;;8.20;99.90;;;;;;5050641;28;20068;-65
2021/12/24 03:15:04;;;;;;;42.85;16.30;;;8.20;99.90;;;;;;5056307;28;20056;-66
2021/12/24 03:17:31;;;;;;;39.38;14.88;;;8.30;99.90;;;;;;5050665;28;20045;-65
2021/12/24 03:20:03;;;;;;;39.80;15.20;;;8.30;99.90;;;;;;5061431;28;20063;-65
2021/12/24 03:25:13;;;;;;;34.05;13.52;;;8.40;99.90;;;;;;5048552;28;20048;-65
2021/12/24 03:27:39;;;;;;;34.80;13.73;;;8.40;99.90;;;;;;5051895;28;20037;-65
2021/12/24 03:30:05;;;;;;;33.55;14.18;;;8.40;99.90;;;;;;5063495;28;20044;-65
2021/12/24 03:32:31;;;;;;;39.97;14.95;;;8.40;99.90;;;;;;5056199;28;20380;-65
2021/12/24 03:34:56;;;;;;;32.70;14.63;;;8.40;99.90;;;;;;5052870;28;20052;-65
2021/12/24 03:37:22;;;;;;;33.85;15.50;;;8.40;99.90;;;;;;5055976;28;20044;-66
2021/12/24 03:39:47;;;;;;;42.40;16.60;;;8.40;99.90;;;;;;5054321;28;20106;-66
2021/12/24 03:42:13;;;;;;;43.00;17.27;;;8.40;99.90;;;;;;5065923;28;20037;-66
2021/12/24 03:44:44;;;;;;;47.28;19.92;;;8.40;99.90;;;;;;5060009;28;20513;-65
2021/12/24 03:47:16;;;;;;;54.42;20.25;;;8.40;99.90;;;;;;5057839;28;20116;-65
2021/12/24 03:50:01;;;;;;;50.55;20.10;;;8.40;99.90;;;;;;5055627;28;20464;-66
2021/12/24 03:54:58;;;;;;;56.50;23.33;;;8.50;99.90;;;;;;5063226;28;20387;-66
2021/12/24 03:57:33;;;;;;;53.88;22.67;;;8.40;99.90;;;;;;5040668;28;20152;-66
2021/12/24 04:00:07;;;;;;;57.58;24.65;;;8.40;99.90;;;;;;5065567;28;20103;-66
2021/12/24 04:02:32;;;;;;;61.15;23.65;;;8.50;99.90;;;;;;5056772;28;20041;-66
2021/12/24 04:04:58;;;;;;;59.65;24.70;;;8.40;99.90;;;;;;5060295;28;20103;-66
2021/12/24 04:07:23;;;;;;;62.28;25.17;;;8.40;99.90;;;;;;5057482;28;20052;-65
2021/12/24 04:09:58;;;;;;;60.00;25.25;;;8.40;99.90;;;;;;5057252;28;20079;-65
2021/12/24 04:12:24;;;;;;;57.40;24.55;;;8.40;99.90;;;;;;5062026;28;20036;-65
2021/12/24 04:14:52;;;;;;;62.42;24.17;;;8.40;99.90;;;;;;5058577;28;20048;-65
2021/12/24 04:17:17;;;;;;;61.33;25.90;;;8.40;99.90;;;;;;5055803;28;20037;-66
2021/12/24 04:25:12;;;;;;;56.72;23.02;;;8.40;99.90;;;;;;5057263;28;20455;-66
2021/12/24 04:27:37;;;;;;;54.42;23.08;;;8.40;99.90;;;;;;5066021;28;20041;-66
2021/12/24 04:30:11;;;;;;;60.75;24.52;;;8.40;99.90;;;;;;5061584;28;20130;-65
2021/12/24 04:51:42;;;;;;;54.53;22.42;;;8.50;99.90;;;;;;5054638;28;20136;-66
2021/12/24 05:05:09;;;;;;;54.63;22.85;;;8.50;99.90;;;;;;5056537;28;20074;-67
2021/12/24 05:10:04;;;;;;;53.83;21.77;;;8.50;99.90;;;;;;5055492;28;20053;-67
2021/12/24 05:12:34;;;;;;;51.25;21.20;;;8.40;99.90;;;;;;5054857;28;20051;-66
2021/12/24 05:15:00;;;;;;;49.80;21.02;;;8.40;99.90;;;;;;5059536;28;20060;-66
2021/12/24 05:17:52;;;;;;;50.97;21.15;;;8.50;99.90;;;;;;5062124;28;20098;-67
2021/12/24 05:23:02;;;;;;;53.17;21.20;;;8.50;99.90;;;;;;5053325;28;20194;-67
2021/12/24 05:25:27;;;;;;;47.13;20.38;;;8.50;99.90;;;;;;5065535;28;20119;-67
2021/12/24 05:27:55;;;;;;;48.88;20.23;;;8.50;99.90;;;;;;5060999;28;20326;-66
2021/12/24 05:30:22;;;;;;;41.92;19.88;;;8.50;99.90;;;;;;5060871;28;20063;-65
2021/12/24 05:32:48;;;;;;;48.53;20.48;;;8.50;99.90;;;;;;5060642;28;20511;-64
2021/12/24 05:35:14;;;;;;;50.60;19.35;;;8.50;99.90;;;;;;5057739;28;20045;-66
2021/12/24 05:37:39;;;;;;;45.70;19.38;;;8.50;99.90;;;;;;5061565;28;20045;-66
2021/12/24 05:40:06;;;;;;;44.42;19.58;;;8.50;99.90;;;;;;5053495;28;20120;-65
2021/12/24 05:42:33;;;;;;;47.05;18.88;;;8.50;99.90;;;;;;5056639;28;20095;-65
2021/12/24 05:45:07;;;;;;;39.25;18.42;;;8.50;99.90;;;;;;5052230;28;20377;-65
2021/12/24 05:47:33;;;;;;;44.90;17.52;;;8.50;99.90;;;;;;5061261;28;20032;-66
2021/12/24 05:50:02;;;;;;;35.67;17.08;;;8.50;99.90;;;;;;5051832;28;20837;-65
2021/12/24 05:52:29;;;;;;;38.30;16.20;;;8.50;99.90;;;;;;5060593;28;20059;-65
2021/12/24 05:54:54;;;;;;;40.42;16.70;;;8.50;99.90;;;;;;5055090;28;20451;-66
2021/12/24 05:57:20;;;;;;;38.25;15.85;;;8.50;99.90;;;;;;5058319;28;20044;-66
2021/12/24 05:59:45;;;;;;;40.35;15.63;;;8.50;99.90;;;;;;5065496;28;20094;-65
2021/12/24 06:02:11;;;;;;;36.17;16.45;;;8.50;99.90;;;;;;5056092;28;20040;-66
2021/12/24 06:04:37;;;;;;;34.80;15.30;;;8.40;99.90;;;;;;5057585;28;20055;-66
2021/12/24 06:07:03;;;;;;;35.03;15.23;;;8.50;99.90;;;;;;5060263;28;20083;-66
2021/12/24 06:09:28;;;;;;;38.75;15.48;;;8.50;99.90;;;;;;5052697;28;20052;-67
2021/12/24 06:11:54;;;;;;;39.30;16.08;;;8.50;99.90;;;;;;5056322;28;20061;-65
2021/12/24 06:14:19;;;;;;;31.73;14.48;;;8.50;99.90;;;;;;5055225;28;20441;-66
2021/12/24 06:17:01;;;;;;;34.88;14.18;;;8.50;99.90;;;;;;5049432;28;20415;-65
2021/12/24 06:19:26;;;;;;;37.88;14.45;;;8.50;99.90;;;;;;5055175;28;20044;-65
2021/12/24 06:22:01;;;;;;;40.88;14.52;;;8.50;99.90;;;;;;5052457;28;21111;-65
2021/12/24 06:24:27;;;;;;;29.63;13.55;;;8.50;99.90;;;;;;5049619;28;20333;-65
2021/12/24 06:26:53;;;;;;;29.23;13.88;;;8.50;99.90;;;;;;5052267;28;20104;-66
2021/12/24 06:29:20;;;;;;;36.25;13.43;;;8.60;99.90;;;;;;5053391;28;20036;-66
2021/12/24 06:31:46;;;;;;;34.67;12.50;;;8.50;99.90;;;;;;5052906;28;20086;-65
2021/12/24 06:34:12;;;;;;;35.13;12.65;;;8.50;99.90;;;;;;5054461;28;20057;-65
2021/12/24 06:36:41;;;;;;;24.58;11.95;;;8.50;99.90;;;;;;5047966;28;20045;-66
2021/12/24 06:39:07;;;;;;;31.35;11.63;;;8.50;99.90;;;;;;5056840;28;20034;-66
2021/12/24 06:41:33;;;;;;;32.60;11.98;;;8.50;99.90;;;;;;5053594;28;20072;-66
2021/12/24 06:44:00;;;;;;;32.80;11.02;;;8.50;99.90;;;;;;5050191;28;20033;-66
2021/12/24 06:46:26;;;;;;;34.38;11.10;;;8.50;99.90;;;;;;5057542;28;20103;-66
2021/12/24 06:48:56;;;;;;;31.80;11.32;;;8.50;99.90;;;;;;5057996;28;20040;-66
2021/12/24 06:51:25;;;;;;;29.05;10.70;;;8.50;99.90;;;;;;5059249;28;20702;-66
2021/12/24 06:53:51;;;;;;;26.92;11.13;;;8.50;99.90;;;;;;5068230;28;20502;-65
2021/12/24 06:56:17;;;;;;;34.25;11.07;;;8.40;99.90;;;;;;5061803;28;20040;-65
2021/12/24 06:58:42;;;;;;;28.40;10.70;;;8.40;99.90;;;;;;5067856;28;20056;-66
2021/12/24 07:01:08;;;;;;;31.35;12.10;;;8.40;99.90;;;;;;5061848;28;20049;-65
2021/12/24 07:03:34;;;;;;;31.85;10.50;;;8.50;99.90;;;;;;5048525;28;20067;-65
2021/12/24 07:06:00;;;;;;;34.13;11.35;;;8.50;99.90;;;;;;5048297;28;20033;-64
2021/12/24 07:08:26;;;;;;;29.20;11.55;;;8.50;99.90;;;;;;5048310;28;20060;-65
2021/12/24 07:10:52;;;;;;;32.38;11.48;;;8.40;99.90;;;;;;5050747;28;20127;-66
2021/12/24 07:13:18;;;;;;;29.77;11.27;;;8.40;99.90;;;;;;5045628;28;20467;-67
2021/12/24 07:15:43;;;;;;;37.00;11.80;;;8.40;99.90;;;;;;5049272;28;20132;-66
2021/12/24 07:18:09;;;;;;;31.58;11.50;;;8.40;99.90;;;;;;5052935;28;20098;-66
2021/12/24 07:20:34;;;;;;;29.35;11.23;;;8.40;99.90;;;;;;5046561;28;20052;-66
2021/12/24 07:23:00;;;;;;;32.47;11.05;;;8.40;99.90;;;;;;5035467;28;20102;-65
2021/12/24 07:25:26;;;;;;;34.53;11.55;;;8.40;99.90;;;;;;5062075;28;20124;-65
2021/12/24 07:27:51;;;;;;;27.33;10.15;;;8.40;99.90;;;;;;5063216;28;20116;-65
2021/12/24 07:30:18;;;;;;;28.13;10.27;;;8.40;99.90;;;;;;5052632;28;20106;-65
2021/12/24 07:32:45;;;;;;;35.13;10.38;;;8.40;99.90;;;;;;5059681;28;20052;-64
2021/12/24 07:35:10;;;;;;;28.70;10.30;;;8.40;99.90;;;;;;5053306;28;20123;-64
2021/12/24 07:37:37;;;;;;;29.73;10.23;;;8.40;99.90;;;;;;5053846;28;20120;-64
2021/12/24 07:40:04;;;;;;;32.90;11.27;;;8.30;99.90;;;;;;5049480;28;20040;-66
2021/12/24 07:42:30;;;;;;;29.83;9.93;;;8.30;99.90;;;;;;5054400;28;20041;-65
2021/12/24 07:44:56;;;;;;;33.58;10.50;;;8.30;99.90;;;;;;5050510;28;20047;-64
2021/12/24 07:47:35;;;;;;;30.17;10.10;;;8.30;99.90;;;;;;5048824;28;20040;-63
2021/12/24 07:50:17;;;;;;;29.25;9.65;;;8.30;99.90;;;;;;5056523;28;20079;-66
2021/12/24 07:52:44;;;;;;;28.08;9.73;;;8.30;99.90;;;;;;5056754;28;20098;-66
2021/12/24 07:55:11;;;;;;;36.33;11.32;;;8.30;99.90;;;;;;5047186;28;20414;-65
2021/12/24 07:57:46;;;;;;;29.77;9.63;;;8.30;99.90;;;;;;5054105;28;20055;-66
2021/12/24 08:00:13;;;;;;;26.25;10.18;;;8.30;99.90;;;;;;5058396;28;20056;-66
2021/12/24 08:02:41;;;;;;;30.33;10.63;;;8.40;99.90;;;;;;5064004;28;20063;-66
2021/12/24 08:05:07;;;;;;;26.95;9.88;;;8.30;99.90;;;;;;5053885;28;20466;-64
2021/12/24 08:07:35;;;;;;;35.05;10.73;;;8.30;99.90;;;;;;5061755;28;20246;-65
2021/12/24 08:10:04;;;;;;;34.50;11.07;;;8.30;99.90;;;;;;5058362;28;20049;-65
2021/12/24 08:12:30;;;;;;;34.22;10.20;;;8.30;99.90;;;;;;5059303;28;20071;-65
2021/12/24 08:14:55;;;;;;;33.47;10.55;;;8.30;99.90;;;;;;5050519;28;20068;-65
2021/12/24 08:17:21;;;;;;;40.58;10.52;;;8.30;99.90;;;;;;5063271;28;20103;-66
2021/12/24 08:19:46;;;;;;;34.13;9.60;;;8.30;99.90;;;;;;5053501;28;20261;-66
2021/12/24 08:22:12;;;;;;;30.33;9.73;;;8.30;99.90;;;;;;5060063;28;20043;-67
2021/12/24 08:24:39;;;;;;;29.02;9.65;;;8.30;99.90;;;;;;5053937;28;20052;-67
2021/12/24 08:27:05;;;;;;;31.67;9.43;;;8.40;99.90;;;;;;5055759;28;20041;-68
2021/12/24 08:29:31;;;;;;;30.50;8.77;;;8.30;99.90;;;;;;5055433;28;20055;-68
2021/12/24 08:31:56;;;;;;;23.52;7.70;;;8.30;99.90;;;;;;5051586;28;20060;-68
2021/12/24 08:34:23;;;;;;;28.67;8.00;;;8.30;99.90;;;;;;5046511;28;20041;-68
2021/12/24 08:36:55;;;;;;;28.90;7.43;;;8.30;99.90;;;;;;5056723;28;20163;-68
2021/12/24 08:39:23;;;;;;;27.77;7.78;;;8.30;99.90;;;;;;5051620;28;20044;-71
2021/12/24 08:41:54;;;;;;;23.75;6.78;;;8.30;99.90;;;;;;5056709;28;20041;-67
2021/12/24 08:44:32;;;;;;;28.20;7.50;;;8.30;99.90;;;;;;5053932;28;20041;-67
2021/12/24 08:47:01;;;;;;;31.00;7.38;;;8.30;99.90;;;;;;5054271;28;20656;-69
2021/12/24 08:49:32;;;;;;;24.60;6.68;;;8.30;99.90;;;;;;5039312;28;20110;-67
2021/12/24 08:52:02;;;;;;;28.27;5.97;;;8.40;99.90;;;;;;5056851;28;20048;-65
2021/12/24 08:54:56;;;;;;;31.20;7.18;;;8.30;99.90;;;;;;5059364;28;20160;-68
2021/12/24 08:57:22;;;;;;;29.35;7.03;;;8.30;99.90;;;;;;5057595;28;20055;-66
2021/12/24 08:59:47;;;;;;;29.30;6.05;;;8.30;99.90;;;;;;5057739;28;20040;-66
2021/12/24 09:02:13;;;;;;;33.03;6.85;;;8.30;99.90;;;;;;5058851;28;20124;-65
2021/12/24 09:04:38;;;;;;;24.88;6.40;;;8.30;99.90;;;;;;5053999;28;20445;-66
2021/12/24 09:07:04;;;;;;;26.92;6.15;;;8.30;99.90;;;;;;5051349;28;20041;-65
2021/12/24 09:09:30;;;;;;;24.35;6.10;;;8.30;99.90;;;;;;5052526;28;20270;-66
2021/12/24 09:11:56;;;;;;;29.50;6.75;;;8.30;99.90;;;;;;5052475;28;20145;-66
2021/12/24 09:14:22;;;;;;;27.33;7.20;;;8.40;99.90;;;;;;5056483;28;20124;-66
2021/12/24 09:16:49;;;;;;;24.45;6.07;;;8.30;99.90;;;;;;5060543;28;20225;-65
2021/12/24 09:19:19;;;;;;;26.45;6.28;;;8.30;99.90;;;;;;5057638;28;20379;-66
2021/12/24 09:21:46;;;;;;;25.55;6.55;;;8.40;99.90;;;;;;5056037;28;20127;-65
2021/12/24 09:24:11;;;;;;;31.05;7.45;;;8.40;99.90;;;;;;5060070;28;20076;-65
2021/12/24 09:26:37;;;;;;;26.45;6.20;;;8.40;99.90;;;;;;5060055;28;20114;-65
2021/12/24 09:29:06;;;;;;;25.90;7.05;;;8.40;99.90;;;;;;5067200;28;20048;-66
2021/12/24 09:31:32;;;;;;;27.90;6.85;;;8.30;99.90;;;;;;5054041;28;20036;-64
2021/12/24 09:33:58;;;;;;;29.52;6.55;;;8.40;99.90;;;;;;5059193;28;20466;-65
2021/12/24 09:36:26;;;;;;;29.30;7.63;;;8.40;99.90;;;;;;5055590;28;20032;-66
2021/12/24 09:38:53;;;;;;;26.13;6.63;;;8.40;99.90;;;;;;5049693;28;20045;-65
2021/12/24 09:41:19;;;;;;;24.42;6.65;;;8.40;99.90;;;;;;5062788;28;20054;-65
2021/12/24 09:43:45;;;;;;;28.83;6.88;;;8.50;99.90;;;;;;5062230;28;20395;-65
2021/12/24 09:46:14;;;;;;;32.70;7.50;;;8.40;99.90;;;;;;5068917;28;20045;-65
2021/12/24 09:48:40;;;;;;;23.52;7.75;;;8.50;99.90;;;;;;5061299;28;20066;-67
2021/12/24 09:51:06;;;;;;;33.53;7.88;;;8.50;99.90;;;;;;5060362;28;20036;-66
2021/12/24 09:53:32;;;;;;;20.48;6.63;;;8.50;99.90;;;;;;5058089;28;20049;-65
2021/12/24 09:55:58;;;;;;;28.30;7.68;;;8.50;99.90;;;;;;5053699;28;20106;-65
2021/12/24 09:58:24;;;;;;;21.92;7.30;;;8.60;99.90;;;;;;5057791;28;20093;-65
2021/12/24 10:00:49;;;;;;;26.15;7.38;;;8.60;99.90;;;;;;5052834;28;20033;-64
2021/12/24 10:03:29;;;;;;;25.00;6.90;;;8.60;99.90;;;;;;5056290;28;20094;-65
2021/12/24 10:05:55;;;;;;;27.40;7.03;;;8.60;99.90;;;;;;5060437;28;20060;-65
2021/12/24 10:08:23;;;;;;;25.45;7.00;;;8.60;99.90;;;;;;5057224;28;20806;-65
2021/12/24 10:10:52;;;;;;;24.30;7.15;;;8.60;99.90;;;;;;5061500;28;20060;-65
2021/12/24 10:13:30;;;;;;;26.02;6.40;;;8.60;99.90;;;;;;5065933;28;20127;-65
2021/12/24 10:15:57;;;;;;;23.58;6.45;;;8.60;99.90;;;;;;5059941;28;20500;-66
2021/12/24 10:18:37;;;;;;;20.17;5.97;;;8.60;99.90;;;;;;5056867;28;20192;-65
2021/12/24 10:21:15;;;;;;;19.27;6.30;;;8.70;99.90;;;;;;5061200;28;20097;-65
2021/12/24 10:23:48;;;;;;;23.85;6.30;;;8.70;99.90;;;;;;5060422;28;20659;-65
2021/12/24 10:26:53;;;;;;;21.23;6.07;;;8.80;99.90;;;;;;5058758;28;20051;-66
2021/12/24 10:29:30;;;;;;;24.70;6.20;;;8.90;99.90;;;;;;5056951;28;20106;-66
2021/12/24 10:32:30;;;;;;;23.67;6.00;;;8.90;99.90;;;;;;5053056;28;20480;-66
2021/12/24 10:34:55;;;;;;;20.27;6.65;;;9.00;99.90;;;;;;5037744;28;20094;-67
2021/12/24 10:37:23;;;;;;;19.05;6.03;;;9.00;99.90;;;;;;5057769;28;20128;-67
2021/12/24 10:39:55;;;;;;;24.65;6.22;;;9.10;99.90;;;;;;5056743;28;20138;-67
2021/12/24 10:42:39;;;;;;;24.67;6.68;;;9.10;99.90;;;;;;5050138;28;20037;-67
2021/12/24 10:45:09;;;;;;;21.80;6.90;;;9.10;99.90;;;;;;5047516;28;20049;-66
2021/12/24 10:47:39;;;;;;;27.52;7.28;;;9.10;99.90;;;;;;5047947;28;20362;-67
2021/12/24 10:50:28;;;;;;;19.73;6.90;;;9.10;99.90;;;;;;5049196;28;20369;-65
2021/12/24 10:53:17;;;;;;;23.15;7.03;;;9.10;99.90;;;;;;5049538;28;20128;-66
2021/12/24 10:55:54;;;;;;;27.15;7.22;;;9.10;99.90;;;;;;5049469;28;20052;-65
2021/12/24 10:58:23;;;;;;;21.30;7.13;;;9.10;99.90;;;;;;5063043;28;20098;-66
2021/12/24 11:00:53;;;;;;;20.58;7.15;;;9.00;99.90;;;;;;5067059;28;20056;-66
2021/12/24 11:03:24;;;;;;;25.70;8.13;;;9.00;99.90;;;;;;5049644;28;20059;-66
2021/12/24 11:06:13;;;;;;;24.60;8.23;;;9.00;99.90;;;;;;5048976;28;20041;-66
2021/12/24 11:08:40;;;;;;;27.45;8.48;;;9.00;99.90;;;;;;5062585;28;20825;-66
2021/12/24 11:11:08;;;;;;;24.27;7.72;;;9.00;99.90;;;;;;5048545;28;20064;-66
2021/12/24 11:13:39;;;;;;;26.80;7.53;;;9.00;99.90;;;;;;5049765;28;20045;-66
2021/12/24 11:16:07;;;;;;;25.15;6.85;;;9.00;99.90;;;;;;5061986;28;20145;-65
2021/12/24 11:18:35;;;;;;;24.80;7.13;;;9.00;99.90;;;;;;5068511;28;20068;-67
2021/12/24 11:21:18;;;;;;;25.42;7.13;;;9.00;99.90;;;;;;5058871;28;20052;-66
2021/12/24 11:23:43;;;;;;;31.73;7.00;;;8.90;99.90;;;;;;5065904;28;20083;-66
2021/12/24 11:26:15;;;;;;;24.27;6.93;;;8.90;99.90;;;;;;5054882;28;20171;-66
2021/12/24 11:28:42;;;;;;;23.35;7.00;;;8.90;99.90;;;;;;5063360;28;20064;-66
2021/12/24 11:31:15;;;;;;;26.75;7.30;;;8.90;99.90;;;;;;5052128;28;20179;-66
2021/12/24 11:33:43;;;;;;;26.67;7.32;;;8.90;99.90;;;;;;5054836;28;20226;-66
2021/12/24 11:36:10;;;;;;;27.77;7.13;;;8.90;99.90;;;;;;5048491;28;20037;-66
2021/12/24 11:38:46;;;;;;;30.15;6.95;;;8.90;99.90;;;;;;5054191;28;20057;-66
2021/12/24 11:41:13;;;;;;;;;;;8.90;99.90;;;;;;5054450;28;20106;-66
2021/12/24 11:43:41;;;;;;;28.77;6.03;;;8.80;99.90;;;;;;5054830;28;19928;-67
2021/12/24 11:46:10;;;;;;;22.35;6.15;;;8.80;99.90;;;;;;5058884;28;20037;-67
2021/12/24 11:48:36;;;;;;;19.88;4.45;;;8.80;99.90;;;;;;5057563;28;20119;-65
2021/12/24 11:51:18;;;;;;;19.05;4.32;;;8.70;99.90;;;;;;5051961;28;20044;-66
2021/12/24 11:53:44;;;;;;;9.70;3.08;;;8.70;99.90;;;;;;5053740;28;20045;-67
2021/12/24 11:56:13;;;;;;;6.10;2.83;;;8.60;99.90;;;;;;5055746;28;20382;-67
2021/12/24 11:58:47;;;;;;;10.23;3.20;;;8.60;99.90;;;;;;5056059;28;20055;-66
2021/12/24 12:01:16;;;;;;;5.80;2.13;;;8.50;99.90;;;;;;5041167;28;20391;-66
2021/12/24 12:03:49;;;;;;;2.80;1.10;;;8.40;99.90;;;;;;5066732;28;20131;-66
2021/12/24 12:06:17;;;;;;;2.88;0.88;;;8.30;99.90;;;;;;5053871;28;20079;-67
2021/12/24 12:08:48;;;;;;;2.58;1.05;;;8.20;99.90;;;;;;5051873;28;20052;-67
2021/12/24 12:11:13;;;;;;;2.67;1.10;;;8.10;99.90;;;;;;5056760;28;20072;-67
2021/12/24 12:13:57;;;;;;;2.13;0.90;;;8.00;99.90;;;;;;5066651;28;20131;-67
2021/12/24 12:16:27;;;;;;;1.67;1.00;;;7.90;99.90;;;;;;5057527;28;20040;-68
2021/12/24 12:25:13;;;;;;;1.85;0.88;;;8.00;99.90;;;;;;5060217;28;20053;-66
2021/12/24 12:27:41;;;;;;;1.15;0.70;;;8.00;99.90;;;;;;5060666;28;20129;-66
2021/12/24 12:30:48;;;;;;;0.70;0.70;;;8.00;99.90;;;;;;5059335;28;20064;-66
2021/12/24 12:33:22;;;;;;;0.85;0.60;;;8.00;99.90;;;;;;5051156;28;20122;-66
2021/12/24 12:35:59;;;;;;;1.35;0.80;;;7.90;99.90;;;;;;5062320;28;20049;-66
2021/12/24 12:38:33;;;;;;;1.27;0.90;;;8.00;99.90;;;;;;5064053;28;20045;-67
2021/12/24 12:41:24;;;;;;;1.40;0.80;;;8.00;99.90;;;;;;5062777;28;20063;-66
2021/12/24 12:43:51;;;;;;;2.05;0.90;;;8.00;99.90;;;;;;5056752;28;20330;-66
2021/12/24 12:46:25;;;;;;;1.60;1.10;;;8.00;99.90;;;;;;5062881;28;20087;-66
2021/12/24 12:48:53;;;;;;;2.00;1.00;;;8.00;99.90;;;;;;5061413;28;20429;-68
2021/12/24 12:51:21;;;;;;;2.00;1.10;;;8.00;99.90;;;;;;5062761;28;20044;-67
2021/12/24 12:53:50;;;;;;;1.85;1.10;;;8.10;99.90;;;;;;5057152;28;20076;-67
2021/12/24 12:56:15;;;;;;;1.70;1.13;;;8.10;99.90;;;;;;5058216;28;20048;-65
2021/12/24 12:58:47;;;;;;;2.90;1.15;;;8.00;99.90;;;;;;5067098;28;20118;-66
2021/12/24 13:01:20;;;;;;;1.98;1.00;;;8.10;99.90;;;;;;5059773;28;20048;-66
2021/12/24 13:04:06;;;;;;;2.10;1.20;;;8.10;99.90;;;;;;5060585;28;20058;-67
2021/12/24 13:06:36;;;;;;;2.50;1.30;;;8.10;99.90;;;;;;5056978;28;20049;-67
2021/12/24 13:09:05;;;;;;;3.83;1.40;;;8.10;99.90;;;;;;5060494;28;20431;-66
2021/12/24 13:11:40;;;;;;;2.20;1.23;;;8.10;99.90;;;;;;5058982;28;20048;-66
2021/12/24 13:14:06;;;;;;;;;;;8.00;99.90;;;;;;5063427;28;20471;-66
2021/12/24 13:16:45;;;;;;;3.20;1.35;;;8.00;99.90;;;;;;5054889;28;19921;-66
2021/12/24 13:24:47;;;;;;;2.05;1.15;;;8.10;99.90;;;;;;5058811;28;20197;-66
2021/12/24 13:27:12;;;;;;;2.03;1.20;;;8.00;99.90;;;;;;5067643;28;20112;-66
2021/12/24 13:29:38;;;;;;;2.08;1.20;;;8.10;99.90;;;;;;5068897;28;20082;-66
2021/12/24 13:32:04;;;;;;;2.03;1.20;;;8.00;99.90;;;;;;5065326;28;20040;-66
2021/12/24 13:34:30;;;;;;;2.10;1.17;;;8.10;99.90;;;;;;5059145;28;20040;-66
2021/12/24 13:37:10;;;;;;;1.85;1.02;;;8.10;99.90;;;;;;5054274;28;20445;-66
2021/12/24 13:39:35;;;;;;;3.70;1.17;;;8.10;99.90;;;;;;5055102;28;20041;-65
2021/12/24 13:42:07;;;;;;;3.10;1.20;;;8.10;99.90;;;;;;5056278;28;20040;-66
2021/12/24 13:44:34;;;;;;;2.65;1.10;;;8.10;99.90;;;;;;5056750;28;20052;-67
2021/12/24 13:47:07;;;;;;;2.63;1.10;;;8.10;99.90;;;;;;5067327;28;20063;-66
2021/12/24 13:55:31;;;;;;;2.63;1.30;;;8.00;99.90;;;;;;5050485;28;20041;-68
2021/12/24 13:57:59;;;;;;;1.90;1.30;;;7.90;99.90;;;;;;5050429;28;20060;-67
2021/12/24 14:00:26;;;;;;;2.25;1.30;;;7.80;99.90;;;;;;5051482;28;20502;-67
2021/12/24 14:02:58;;;;;;;2.28;1.20;;;7.90;99.90;;;;;;5052689;28;20071;-67
2021/12/24 14:05:24;;;;;;;1.80;1.05;;;7.90;99.90;;;;;;5054539;28;20161;-67
2021/12/24 14:08:24;;;;;;;1.83;1.10;;;7.90;99.90;;;;;;5051997;28;20041;-66
2021/12/24 14:11:24;;;;;;;1.95;1.20;;;7.90;99.90;;;;;;5023401;28;20118;-66
2021/12/24 14:13:58;;;;;;;2.45;1.30;;;7.90;99.90;;;;;;5064920;28;20048;-66
2021/12/24 14:19:14;;;;;;;2.30;1.30;;;8.00;99.90;;;;;;5050617;28;20124;-67
2021/12/24 14:24:15;;;;;;;2.55;1.40;;;7.90;99.90;;;;;;5058089;28;20044;-66
2021/12/24 14:26:45;;;;;;;2.92;1.20;;;7.90;99.90;;;;;;5057867;28;20135;-67
2021/12/24 14:29:11;;;;;;;3.55;1.60;;;7.90;99.90;;;;;;5053656;28;20041;-68
2021/12/24 14:32:02;;;;;;;2.80;1.60;;;7.90;99.90;;;;;;5070639;28;20048;-66
2021/12/24 14:34:49;;;;;;;2.70;1.27;;;7.80;99.90;;;;;;5066040;28;20056;-67
2021/12/24 14:37:17;;;;;;;2.88;1.60;;;7.80;99.90;;;;;;5056291;28;20097;-67
2021/12/24 14:39:50;;;;;;;2.70;1.42;;;7.80;99.90;;;;;;5058532;28;20045;-67
2021/12/24 14:42:17;;;;;;;2.53;1.50;;;7.80;99.90;;;;;;5058385;28;20040;-67
2021/12/24 14:44:44;;;;;;;2.80;1.40;;;7.80;99.90;;;;;;5061666;28;20127;-66
2021/12/24 14:47:11;;;;;;;2.83;1.55;;;7.70;99.90;;;;;;5058781;28;20846;-67